createdAt,value
2019-04-28T00:00:52.959Z,97873.30
2019-04-28T00:03:23.079Z,97872.23
2019-04-28T00:05:53.546Z,97880.30
2019-04-28T00:08:24.589Z,97865.23
2019-04-28T00:10:54.196Z,97862.61
2019-04-28T00:13:23.861Z,97869.73
2019-04-28T00:15:54.055Z,97869.28
2019-04-28T00:18:23.954Z,97870.12
2019-04-28T00:20:57.711Z,97869.18
2019-04-28T00:23:42.268Z,97881.42
2019-04-28T00:26:22.109Z,97881.16
2019-04-28T00:28:51.659Z,97886.14
2019-04-28T00:31:22.042Z,97886.41
2019-04-28T00:33:52.445Z,97882.75
2019-04-28T00:36:21.749Z,97878.70
2019-04-28T00:38:51.558Z,97877.25
2019-04-28T00:41:22.424Z,97876.36
2019-04-28T00:43:54.489Z,97873.49
2019-04-28T00:46:26.352Z,97876.27
2019-04-28T00:48:58.158Z,97872.22
2019-04-28T00:51:27.591Z,97874.99
2019-04-28T00:53:57.993Z,97877.31
2019-04-28T00:56:28.297Z,97879.16
2019-04-28T00:58:59.232Z,97891.47
2019-04-28T01:01:31.296Z,97904.30
2019-04-28T01:04:02.179Z,97897.59
2019-04-28T01:06:32.134Z,97891.11
2019-04-28T01:09:04.206Z,97881.11
2019-04-28T01:11:33.552Z,97881.77
2019-04-28T01:14:03.951Z,97877.83
2019-04-28T01:16:34.857Z,97876.09
2019-04-28T01:19:11.574Z,97877.01
2019-04-28T01:22:00.354Z,97876.66
2019-04-28T01:24:30.025Z,97874.48
2019-04-28T01:27:00.536Z,97878.56
2019-04-28T01:29:34.165Z,97882.91
2019-04-28T01:32:20.134Z,97891.11
2019-04-28T01:34:50.652Z,97894.92
2019-04-28T01:37:20.945Z,97883.36
2019-04-28T01:39:51.541Z,97881.47
2019-04-28T01:42:23.435Z,97884.98
2019-04-28T01:44:52.941Z,97882.50
2019-04-28T01:47:23.298Z,97880.91
2019-04-28T01:49:52.809Z,97888.73
2019-04-28T01:52:26.301Z,97904.37
2019-04-28T01:55:00.604Z,97909.28
2019-04-28T01:57:30.983Z,97918.55
2019-04-28T02:00:02.744Z,97920.02
2019-04-28T02:02:33.464Z,97935.44
2019-04-28T02:05:03.866Z,97936.80
2019-04-28T02:07:34.376Z,97945.60
2019-04-28T02:10:06.348Z,97939.53
2019-04-28T02:12:38.007Z,97942.37
2019-04-28T02:15:11.694Z,97951.79
2019-04-28T02:17:41.173Z,97966.97
2019-04-28T02:20:10.520Z,97962.12
2019-04-28T02:22:44.272Z,97969.11
2019-04-28T02:25:13.696Z,97974.68
2019-04-28T02:27:46.288Z,97967.88
2019-04-28T02:30:17.022Z,97968.02
2019-04-28T02:32:47.677Z,97960.63
2019-04-28T02:35:18.036Z,97953.73
2019-04-28T02:37:50.688Z,97961.53
2019-04-28T02:40:21.139Z,97958.58
2019-04-28T02:42:52.273Z,97957.34
2019-04-28T02:45:22.414Z,97953.03
2019-04-28T02:47:52.849Z,97957.66
2019-04-28T02:50:30.479Z,97959.20
2019-04-28T02:53:03.031Z,97954.98
2019-04-28T02:55:36.314Z,97958.67
2019-04-28T02:58:06.824Z,97956.94
2019-04-28T03:00:37.335Z,97958.87
2019-04-28T03:03:10.857Z,97961.58
2019-04-28T03:05:41.399Z,97959.86
2019-04-28T03:08:13.518Z,97963.84
2019-04-28T03:10:43.975Z,97959.80
2019-04-28T03:13:13.483Z,97959.11
2019-04-28T03:15:44.622Z,97959.55
2019-04-28T03:18:16.403Z,97965.64
2019-04-28T03:20:46.845Z,97969.34
2019-04-28T03:23:20.642Z,97972.93
2019-04-28T03:25:53.004Z,97980.03
2019-04-28T03:28:26.899Z,97979.33
2019-04-28T03:31:03.333Z,97985.48
2019-04-28T03:33:34.100Z,97979.69
2019-04-28T03:36:08.551Z,97988.92
2019-04-28T03:38:34.882Z,97982.11
2019-04-28T03:41:05.249Z,97979.98
2019-04-28T03:43:35.639Z,97981.41
2019-04-28T03:46:20.419Z,97975.39
2019-04-28T03:48:51.127Z,97982.44
2019-04-28T03:51:21.285Z,97977.64
2019-04-28T03:53:52.108Z,97970.82
2019-04-28T03:56:21.516Z,97969.90
2019-04-28T03:58:50.875Z,97962.27
2019-04-28T04:01:21.220Z,97961.80
2019-04-28T04:03:51.902Z,97974.55
2019-04-28T04:06:22.831Z,97969.81
2019-04-28T04:08:52.239Z,97966.70
2019-04-28T04:11:26.079Z,97962.30
2019-04-28T04:13:58.157Z,97960.02
2019-04-28T04:16:33.370Z,97955.63
2019-04-28T04:19:10.600Z,97955.38
2019-04-28T04:21:40.808Z,97951.77
2019-04-28T04:24:11.590Z,97941.02
2019-04-28T04:26:41.289Z,97946.86
2019-04-28T04:29:11.014Z,97952.63
2019-04-28T04:31:41.335Z,97955.94
2019-04-28T04:34:12.997Z,97963.91
2019-04-28T04:36:43.400Z,97960.69
2019-04-28T04:39:14.015Z,97968.05
2019-04-28T04:41:43.791Z,97960.16
2019-04-28T04:44:12.519Z,97962.50
2019-04-28T04:46:44.187Z,97968.48
2019-04-28T04:49:13.596Z,97969.69
2019-04-28T04:51:44.181Z,97965.45
2019-04-28T04:54:13.464Z,97960.66
2019-04-28T04:56:46.121Z,97964.64
2019-04-28T04:59:16.840Z,97951.63
2019-04-28T05:02:00.005Z,97966.48
2019-04-28T05:04:46.689Z,97951.02
2019-04-28T05:07:19.673Z,97953.47
2019-04-28T05:09:49.617Z,97949.39
2019-04-28T05:12:19.603Z,97951.67
2019-04-28T05:14:50.315Z,97949.66
2019-04-28T05:17:20.716Z,97955.02
2019-04-28T05:19:50.069Z,97948.99
2019-04-28T05:22:22.354Z,97953.55
2019-04-28T05:24:54.628Z,97949.46
2019-04-28T05:27:25.604Z,97952.38
2019-04-28T05:29:56.738Z,97943.36
2019-04-28T05:32:39.305Z,97933.82
2019-04-28T05:35:00.183Z,97934.34
2019-04-28T05:37:35.747Z,97925.84
2019-04-28T05:40:10.443Z,97926.42
2019-04-28T05:42:42.735Z,97921.80
2019-04-28T05:45:13.247Z,97923.17
2019-04-28T05:47:43.640Z,97920.75
2019-04-28T05:50:19.570Z,97914.97
2019-04-28T05:53:00.675Z,97903.88
2019-04-28T05:55:33.035Z,97907.47
2019-04-28T05:58:05.002Z,97909.63
2019-04-28T06:00:49.883Z,97905.81
2019-04-28T06:03:24.101Z,97907.83
2019-04-28T06:05:53.608Z,97906.47
2019-04-28T06:08:27.464Z,97907.16
2019-04-28T06:10:59.894Z,97909.94
2019-04-28T06:13:30.301Z,97907.20
2019-04-28T06:16:00.465Z,97921.13
2019-04-28T06:18:31.326Z,97916.05
2019-04-28T06:21:00.743Z,97924.45
2019-04-28T06:23:30.062Z,97926.27
2019-04-28T06:25:59.456Z,97923.38
2019-04-28T06:28:30.143Z,97933.88
2019-04-28T06:31:00.659Z,97939.48
2019-04-28T06:33:32.265Z,97941.53
2019-04-28T06:36:04.584Z,97949.16
2019-04-28T06:38:34.059Z,97954.92
2019-04-28T06:41:04.454Z,97960.69
2019-04-28T06:43:34.964Z,97967.18
2019-04-28T06:46:05.578Z,97970.95
2019-04-28T06:48:35.910Z,97975.53
2019-04-28T06:51:05.507Z,97981.65
2019-04-28T06:53:35.857Z,97974.52
2019-04-28T06:56:05.363Z,97969.12
2019-04-28T06:58:34.834Z,97976.14
2019-04-28T07:01:04.274Z,97972.63
2019-04-28T07:03:36.643Z,97981.52
2019-04-28T07:06:07.266Z,97976.10
2019-04-28T07:08:37.770Z,97974.23
2019-04-28T07:11:08.398Z,97981.34
2019-04-28T07:13:37.786Z,97989.19
2019-04-28T07:16:08.510Z,97990.86
2019-04-28T07:18:38.970Z,97992.66
2019-04-28T07:21:10.842Z,97995.05
2019-04-28T07:23:41.391Z,97996.86
2019-04-28T07:26:12.911Z,98001.17
2019-04-28T07:28:43.530Z,98002.80
2019-04-28T07:31:13.285Z,98000.16
2019-04-28T07:33:42.721Z,97998.33
2019-04-28T07:36:13.099Z,97994.66
2019-04-28T07:38:43.477Z,97999.78
2019-04-28T07:41:13.958Z,98002.64
2019-04-28T07:43:47.726Z,98009.88
2019-04-28T07:46:20.123Z,98013.98
2019-04-28T07:48:52.500Z,98010.58
2019-04-28T07:51:24.686Z,98011.15
2019-04-28T07:54:01.638Z,98014.16
2019-04-28T07:56:30.244Z,98017.20
2019-04-28T07:59:00.931Z,98015.55
2019-04-28T08:01:31.539Z,98021.53
2019-04-28T08:04:03.504Z,98018.44
2019-04-28T08:06:33.911Z,98017.48
2019-04-28T08:09:03.272Z,98017.71
2019-04-28T08:11:33.572Z,98016.09
2019-04-28T08:14:04.500Z,98014.58
2019-04-28T08:16:38.041Z,98021.38
2019-04-28T08:19:10.536Z,98018.08
2019-04-28T08:21:42.059Z,98019.34
2019-04-28T08:24:14.479Z,98023.70
2019-04-28T08:26:44.991Z,98024.09
2019-04-28T08:29:15.414Z,98018.52
2019-04-28T08:31:59.692Z,98020.85
2019-04-28T08:34:38.881Z,98007.11
2019-04-28T08:37:09.485Z,98010.19
2019-04-28T08:39:39.889Z,98004.70
2019-04-28T08:42:09.302Z,98005.78
2019-04-28T08:44:42.689Z,98013.09
2019-04-28T08:47:12.067Z,98020.69
2019-04-28T08:49:41.512Z,98025.53
2019-04-28T08:52:11.918Z,98023.52
2019-04-28T08:54:41.325Z,98018.63
2019-04-28T08:57:12.038Z,98013.12
2019-04-28T08:59:41.407Z,98017.95
2019-04-28T09:02:11.056Z,98011.84
2019-04-28T09:04:41.564Z,98014.31
2019-04-28T09:07:12.158Z,98009.47
2019-04-28T09:09:42.356Z,98012.66
2019-04-28T09:12:12.864Z,98006.05
2019-04-28T09:14:43.376Z,98001.16
2019-04-28T09:17:13.621Z,98001.09
2019-04-28T09:19:46.071Z,98002.69
2019-04-28T09:22:16.471Z,98002.64
2019-04-28T09:24:46.876Z,97993.56
2019-04-28T09:27:16.341Z,97995.83
2019-04-28T09:29:45.746Z,97998.84
2019-04-28T09:32:15.113Z,97997.47
2019-04-28T09:34:45.474Z,97997.83
2019-04-28T09:37:14.837Z,98001.16
2019-04-28T09:39:47.024Z,98004.95
2019-04-28T09:42:34.235Z,98009.16
2019-04-28T09:45:07.563Z,98002.80
2019-04-28T09:47:38.196Z,98003.61
2019-04-28T09:50:09.017Z,97985.95
2019-04-28T09:52:38.411Z,97983.30
2019-04-28T09:55:08.883Z,97988.83
2019-04-28T09:57:39.443Z,97991.58
2019-04-28T10:00:11.628Z,97991.58
2019-04-28T10:02:42.282Z,97989.95
2019-04-28T10:05:15.090Z,97990.55
2019-04-28T10:07:45.497Z,97987.78
2019-04-28T10:10:16.217Z,97988.34
2019-04-28T10:12:46.620Z,97979.70
2019-04-28T10:15:16.305Z,97979.56
2019-04-28T10:17:46.722Z,97983.19
2019-04-28T10:20:18.068Z,97981.06
2019-04-28T10:22:50.648Z,97985.29
2019-04-28T10:25:21.256Z,97980.97
2019-04-28T10:27:51.663Z,97977.14
2019-04-28T10:30:21.493Z,97984.25
2019-04-28T10:32:54.043Z,97976.81
2019-04-28T10:35:23.348Z,97975.77
2019-04-28T10:37:52.888Z,97975.87
2019-04-28T10:40:42.600Z,97981.65
2019-04-28T10:43:11.437Z,97981.87
2019-04-28T10:45:49.059Z,97977.41
2019-04-28T10:48:19.676Z,97978.44
2019-04-28T10:50:49.077Z,97988.54
2019-04-28T10:53:21.625Z,97983.25
2019-04-28T10:55:51.090Z,97976.26
2019-04-28T10:58:20.614Z,97977.86
2019-04-28T11:00:50.970Z,97973.45
2019-04-28T11:03:21.365Z,97965.91
2019-04-28T11:05:51.772Z,97959.75
2019-04-28T11:08:37.858Z,97965.39
2019-04-28T11:11:10.001Z,97956.63
2019-04-28T11:13:39.326Z,97945.78
2019-04-28T11:16:09.176Z,97946.27
2019-04-28T11:18:45.527Z,97953.63
2019-04-28T11:21:17.806Z,97950.70
2019-04-28T11:23:50.883Z,97958.23
2019-04-28T11:26:21.199Z,97960.75
2019-04-28T11:28:51.532Z,97961.45
2019-04-28T11:31:21.064Z,97962.58
2019-04-28T11:34:11.353Z,97965.68
2019-04-28T11:36:43.850Z,97963.73
2019-04-28T11:39:15.935Z,97960.46
2019-04-28T11:41:46.346Z,97962.16
2019-04-28T11:44:17.166Z,97956.30
2019-04-28T11:46:47.795Z,97959.15
2019-04-28T11:49:18.174Z,97951.49
2019-04-28T11:51:48.685Z,97943.47
2019-04-28T11:54:20.028Z,97946.42
2019-04-28T11:56:52.338Z,97940.58
2019-04-28T11:59:22.838Z,97945.28
2019-04-28T12:01:53.440Z,97944.58
2019-04-28T12:04:23.949Z,97940.96
2019-04-28T12:06:54.565Z,97945.59
2019-04-28T12:09:30.238Z,97945.61
2019-04-28T12:12:02.269Z,97942.80
2019-04-28T12:14:37.168Z,97940.09
2019-04-28T12:17:21.254Z,97939.73
2019-04-28T12:19:54.809Z,97936.92
2019-04-28T12:22:25.197Z,97937.01
2019-04-28T12:24:56.981Z,97929.98
2019-04-28T12:27:29.250Z,97934.63
2019-04-28T12:29:59.698Z,97939.65
2019-04-28T12:32:30.169Z,97943.63
2019-04-28T12:35:00.778Z,97941.92
2019-04-28T12:37:32.762Z,97947.35
2019-04-28T12:40:01.589Z,97948.75
2019-04-28T12:42:32.106Z,97948.30
2019-04-28T12:45:01.479Z,97939.06
2019-04-28T12:47:31.970Z,97942.91
2019-04-28T12:50:06.762Z,97930.66
2019-04-28T12:52:36.291Z,97938.84
2019-04-28T12:55:07.981Z,97929.33
2019-04-28T12:57:38.397Z,97929.17
2019-04-28T13:00:26.873Z,97927.91
2019-04-28T13:03:08.881Z,97929.71
2019-04-28T13:05:41.053Z,97929.20
2019-04-28T13:08:11.369Z,97919.67
2019-04-28T13:10:40.713Z,97916.87
2019-04-28T13:13:11.132Z,97914.66
2019-04-28T13:15:42.801Z,97902.69
2019-04-28T13:18:13.394Z,97911.41
2019-04-28T13:20:43.807Z,97907.95
2019-04-28T13:23:13.205Z,97905.21
2019-04-28T13:25:43.566Z,97909.56
2019-04-28T13:28:12.985Z,97899.70
2019-04-28T13:30:44.271Z,97905.03
2019-04-28T13:33:14.886Z,97896.94
2019-04-28T13:35:45.291Z,97891.86
2019-04-28T13:38:14.781Z,97888.31
2019-04-28T13:40:45.598Z,97885.16
2019-04-28T13:43:15.987Z,97889.70
2019-04-28T13:45:47.435Z,97876.20
2019-04-28T13:48:17.063Z,97871.36
2019-04-28T13:50:49.087Z,97866.76
2019-04-28T13:53:18.709Z,97872.50
2019-04-28T13:55:49.869Z,97875.31
2019-04-28T13:58:23.344Z,97863.91
2019-04-28T14:00:55.405Z,97867.06
2019-04-28T14:03:37.612Z,97863.67
2019-04-28T14:06:11.406Z,97869.20
2019-04-28T14:08:40.765Z,97868.64
2019-04-28T14:11:11.153Z,97864.26
2019-04-28T14:13:41.654Z,97856.51
2019-04-28T14:16:11.844Z,97858.31
2019-04-28T14:18:42.240Z,97851.23
2019-04-28T14:21:11.617Z,97853.80
2019-04-28T14:23:44.822Z,97850.78
2019-04-28T14:26:15.545Z,97843.04
2019-04-28T14:28:45.063Z,97845.41
2019-04-28T14:31:15.425Z,97846.02
2019-04-28T14:33:46.260Z,97846.63
2019-04-28T14:36:15.663Z,97846.99
2019-04-28T14:38:44.980Z,97846.41
2019-04-28T14:41:15.474Z,97848.91
2019-04-28T14:43:45.787Z,97846.31
2019-04-28T14:46:17.957Z,97843.90
2019-04-28T14:48:47.320Z,97845.56
2019-04-28T14:51:17.817Z,97844.70
2019-04-28T14:53:49.333Z,97841.09
2019-04-28T14:56:17.871Z,97840.83
2019-04-28T14:58:47.322Z,97847.16
2019-04-28T15:01:37.190Z,97836.39
2019-04-28T15:04:09.874Z,97838.50
2019-04-28T15:06:54.841Z,97838.41
2019-04-28T15:09:19.910Z,97841.27
2019-04-28T15:11:56.911Z,97841.04
2019-04-28T15:14:26.323Z,97840.50
2019-04-28T15:16:54.897Z,97839.05
2019-04-28T15:19:24.423Z,97847.34
2019-04-28T15:21:54.632Z,97851.38
2019-04-28T15:24:25.389Z,97852.85
2019-04-28T15:26:54.792Z,97849.75
2019-04-28T15:29:24.135Z,97854.29
2019-04-28T15:31:56.588Z,97852.73
2019-04-28T15:34:25.997Z,97850.34
2019-04-28T15:37:09.182Z,97852.29
2019-04-28T15:39:27.805Z,97854.77
2019-04-28T15:41:58.210Z,97849.45
2019-04-28T15:44:28.628Z,97846.38
2019-04-28T15:46:58.031Z,97852.78
2019-04-28T15:49:28.383Z,97854.80
2019-04-28T15:51:58.789Z,97853.19
2019-04-28T15:54:28.210Z,97866.44
2019-04-28T15:59:32.412Z,97858.12
2019-04-28T16:02:02.918Z,97857.14
2019-04-28T16:04:34.686Z,97859.17
2019-04-28T16:07:05.294Z,97859.00
2019-04-28T16:09:34.665Z,97859.77
2019-04-28T16:12:05.490Z,97862.16
2019-04-28T16:14:34.785Z,97863.64
2019-04-28T16:17:05.360Z,97857.39
2019-04-28T16:19:35.859Z,97854.48
2019-04-28T16:22:06.369Z,97851.20
2019-04-28T16:24:38.575Z,97851.25
2019-04-28T16:27:10.320Z,97852.25
2019-04-28T16:29:40.627Z,97846.70
2019-04-28T16:32:10.029Z,97850.70
2019-04-28T16:34:40.396Z,97850.10
2019-04-28T16:37:09.903Z,97856.29
2019-04-28T16:39:40.253Z,97851.70
2019-04-28T16:42:09.091Z,97858.09
2019-04-28T16:44:38.466Z,97855.48
2019-04-28T16:47:08.869Z,97862.09
2019-04-28T16:49:38.169Z,97861.88
2019-04-28T16:52:07.710Z,97865.67
2019-04-28T16:54:38.257Z,97868.89
2019-04-28T16:57:23.406Z,97867.89
2019-04-28T16:59:56.973Z,97873.48
2019-04-28T17:02:31.883Z,97866.48
2019-04-28T17:05:02.387Z,97875.66
2019-04-28T17:07:31.783Z,97877.06
2019-04-28T17:10:02.266Z,97877.88
2019-04-28T17:12:31.659Z,97875.67
2019-04-28T17:15:02.022Z,97880.68
2019-04-28T17:17:32.425Z,97875.27
2019-04-28T17:20:05.444Z,97874.05
2019-04-28T17:22:35.848Z,97874.79
2019-04-28T17:25:08.533Z,97874.56
2019-04-28T17:27:38.952Z,97878.12
2019-04-28T17:30:09.616Z,97871.22
2019-04-28T17:32:39.043Z,97867.28
2019-04-28T17:35:08.502Z,97872.47
2019-04-28T17:37:39.034Z,97872.43
2019-04-28T17:40:09.732Z,97873.98
2019-04-28T17:42:40.341Z,97877.72
2019-04-28T17:45:11.380Z,97879.09
2019-04-28T17:47:41.783Z,97874.66
2019-04-28T17:50:13.563Z,97877.40
2019-04-28T17:52:44.053Z,97872.19
2019-04-28T17:55:14.467Z,97872.34
2019-04-28T17:57:45.712Z,97874.08
2019-04-28T18:00:16.375Z,97885.56
2019-04-28T18:02:51.222Z,97882.97
2019-04-28T18:05:38.120Z,97885.32
2019-04-28T18:08:20.405Z,97896.02
2019-04-28T18:10:40.373Z,97900.53
2019-04-28T18:13:10.801Z,97901.87
2019-04-28T18:15:44.881Z,97904.85
2019-04-28T18:18:24.633Z,97913.84
2019-04-28T18:20:55.071Z,97911.31
2019-04-28T18:23:24.537Z,97906.63
2019-04-28T18:25:54.951Z,97917.73
2019-04-28T18:28:25.577Z,97923.31
2019-04-28T18:31:12.933Z,97928.08
2019-04-28T18:33:46.527Z,97932.72
2019-04-28T18:36:26.448Z,97933.02
2019-04-28T18:38:59.696Z,97939.91
2019-04-28T18:41:45.961Z,97942.50
2019-04-28T18:44:20.426Z,97942.22
2019-04-28T18:46:49.833Z,97952.92
2019-04-28T18:49:20.293Z,97953.56
2019-04-28T18:51:50.700Z,97961.33
2019-04-28T18:54:21.222Z,97961.34
2019-04-28T18:56:51.616Z,97961.62
2019-04-28T18:59:24.288Z,97967.30
2019-04-28T19:01:58.501Z,97970.35
2019-04-28T19:04:28.893Z,97979.33
2019-04-28T19:07:04.942Z,97980.66
2019-04-28T19:09:47.353Z,97984.25
2019-04-28T19:12:21.878Z,97986.56
2019-04-28T19:14:56.953Z,97990.25
2019-04-28T19:17:34.861Z,97984.07
2019-04-28T19:20:04.687Z,97983.53
2019-04-28T19:22:37.068Z,97980.86
2019-04-28T19:25:07.699Z,97981.68
2019-04-28T19:27:38.051Z,97979.94
2019-04-28T19:30:07.527Z,97987.65
2019-04-28T19:32:38.036Z,97989.30
2019-04-28T19:35:08.643Z,97995.59
2019-04-28T19:37:39.046Z,97992.45
2019-04-28T19:40:12.063Z,97999.72
2019-04-28T19:42:41.476Z,98004.61
2019-04-28T19:45:14.130Z,98009.98
2019-04-28T19:47:45.787Z,98014.73
2019-04-28T19:50:15.262Z,98013.44
2019-04-28T19:52:45.595Z,98012.05
2019-04-28T19:55:17.839Z,98014.02
2019-04-28T19:57:57.749Z,98020.02
2019-04-28T20:00:28.925Z,98019.08
2019-04-28T20:02:58.256Z,98023.19
2019-04-28T20:05:28.862Z,98026.98
2019-04-28T20:07:58.235Z,98024.78
2019-04-28T20:10:30.096Z,98028.30
2019-04-28T20:12:59.500Z,98033.35
2019-04-28T20:15:28.868Z,98039.14
2019-04-28T20:18:00.198Z,98042.22
2019-04-28T20:20:32.144Z,98043.52
2019-04-28T20:23:01.538Z,98043.16
2019-04-28T20:25:34.821Z,98045.13
2019-04-28T20:28:05.456Z,98043.82
2019-04-28T20:30:35.843Z,98047.55
2019-04-28T20:33:07.647Z,98046.17
2019-04-28T20:35:39.995Z,98044.25
2019-04-28T20:38:12.073Z,98049.89
2019-04-28T20:40:44.153Z,98046.35
2019-04-28T20:43:21.553Z,98050.14
2019-04-28T20:45:51.143Z,98050.44
2019-04-28T20:48:20.593Z,98054.64
2019-04-28T20:50:51.100Z,98052.06
2019-04-28T20:53:21.630Z,98055.70
2019-04-28T20:55:52.128Z,98046.16
2019-04-28T20:58:28.374Z,98044.77
2019-04-28T21:00:59.931Z,98046.36
2019-04-28T21:03:30.646Z,98046.36
2019-04-28T21:06:00.021Z,98044.16
2019-04-28T21:08:29.324Z,98048.39
2019-04-28T21:10:59.672Z,98051.66
2019-04-28T21:13:30.190Z,98054.16
2019-04-28T21:16:00.806Z,98056.64
2019-04-28T21:18:32.557Z,98060.55
2019-04-28T21:21:04.115Z,98059.38
2019-04-28T21:23:33.498Z,98059.53
2019-04-28T21:26:02.951Z,98051.83
2019-04-28T21:28:32.455Z,98050.72
2019-04-28T21:31:02.917Z,98055.24
2019-04-28T21:33:32.715Z,98058.63
2019-04-28T21:36:02.065Z,98056.14
2019-04-28T21:38:31.471Z,98054.75
2019-04-28T21:41:00.785Z,98056.59
2019-04-28T21:43:36.881Z,98053.36
2019-04-28T21:46:18.796Z,98053.12
2019-04-28T21:48:51.132Z,98051.98
2019-04-28T21:51:19.945Z,98050.14
2019-04-28T21:53:52.230Z,98057.11
2019-04-28T21:56:25.978Z,98051.19
2019-04-28T21:58:57.950Z,98054.83
2019-04-28T22:01:30.663Z,98056.85
2019-04-28T22:04:00.963Z,98053.03
2019-04-28T22:06:31.360Z,98050.59
2019-04-28T22:09:01.871Z,98056.34
2019-04-28T22:11:32.695Z,98059.02
2019-04-28T22:14:02.168Z,98055.52
2019-04-28T22:16:31.558Z,98058.30
2019-04-28T22:19:02.138Z,98060.47
2019-04-28T22:21:32.647Z,98061.03
2019-04-28T22:24:13.599Z,98056.41
2019-04-28T22:26:48.502Z,98060.84
2019-04-28T22:29:18.907Z,98050.46
2019-04-28T22:31:52.964Z,98047.95
2019-04-28T22:34:23.685Z,98047.17
2019-04-28T22:36:54.301Z,98043.38
2019-04-28T22:39:25.042Z,98036.75
2019-04-28T22:41:55.631Z,98037.21
2019-04-28T22:44:28.024Z,98036.84
2019-04-28T22:46:59.783Z,98032.13
2019-04-28T22:49:31.528Z,98037.88
2019-04-28T22:52:03.185Z,98032.48
2019-04-28T22:54:39.254Z,98041.73
2019-04-28T22:57:12.901Z,98044.25
2019-04-28T22:59:46.833Z,98048.27
2019-04-28T23:02:19.036Z,98048.22
2019-04-28T23:04:58.419Z,98047.17
2019-04-28T23:07:28.826Z,98055.22
2019-04-28T23:09:58.195Z,98049.22
2019-04-28T23:12:28.804Z,98043.42
2019-04-28T23:14:58.075Z,98046.45
2019-04-28T23:17:27.579Z,98046.47
2019-04-28T23:19:58.459Z,98040.25
2019-04-28T23:22:45.880Z,98041.66
2019-04-28T23:25:03.988Z,98043.39
2019-04-28T23:27:35.527Z,98044.73
2019-04-28T23:30:06.600Z,98044.83
2019-04-28T23:32:35.447Z,98049.44
2019-04-28T23:35:06.631Z,98052.39
2019-04-28T23:37:35.128Z,98051.15
2019-04-28T23:40:07.127Z,98050.63
2019-04-28T23:42:39.538Z,98049.87
2019-04-28T23:45:12.129Z,98051.15
2019-04-28T23:47:43.242Z,98045.70
2019-04-28T23:50:15.436Z,98044.70
2019-04-28T23:52:52.212Z,98050.02
2019-04-28T23:55:22.110Z,98046.91
2019-04-28T23:57:52.605Z,98045.98
